sensor_id;sensor_type;location;lat;lon;timestamp;pressure;altitude;pressure_sealevel;temperature;humidity
76605;BME280;65496;50.978;16.998;2022-12-16T00:02:03;99543.31;;;20.52;54.70
76605;BME280;65496;50.978;16.998;2022-12-16T00:04:29;99546.06;;;20.52;54.30
76605;BME280;65496;50.978;16.998;2022-12-16T00:06:55;99554.31;;;20.52;54.58
76605;BME280;65496;50.978;16.998;2022-12-16T00:09:22;99548.81;;;20.52;54.24
76605;BME280;65496;50.978;16.998;2022-12-16T00:11:48;99554.31;;;20.52;54.78
76605;BME280;65496;50.978;16.998;2022-12-16T00:14:14;99560.97;;;20.51;54.62
76605;BME280;65496;50.978;16.998;2022-12-16T00:16:40;99542.50;;;20.51;54.45
76605;BME280;65496;50.978;16.998;2022-12-16T00:19:06;99538.59;;;20.52;54.78
76605;BME280;65496;50.978;16.998;2022-12-16T00:21:32;99533.84;;;20.49;54.73
76605;BME280;65496;50.978;16.998;2022-12-16T00:23:58;99548.00;;;20.51;54.53
76605;BME280;65496;50.978;16.998;2022-12-16T00:26:24;99540.56;;;20.52;54.49
76605;BME280;65496;50.978;16.998;2022-12-16T00:28:50;99531.88;;;20.50;54.97
76605;BME280;65496;50.978;16.998;2022-12-16T00:31:16;99531.50;;;20.51;54.13
76605;BME280;65496;50.978;16.998;2022-12-16T00:33:42;99538.19;;;20.50;54.80
76605;BME280;65496;50.978;16.998;2022-12-16T00:36:08;99540.56;;;20.52;54.69
76605;BME280;65496;50.978;16.998;2022-12-16T00:38:35;99537.81;;;20.52;54.52
76605;BME280;65496;50.978;16.998;2022-12-16T00:41:01;99535.06;;;20.52;54.76
76605;BME280;65496;50.978;16.998;2022-12-16T00:43:27;99526.81;;;20.52;54.42
76605;BME280;65496;50.978;16.998;2022-12-16T00:45:53;99537.00;;;20.51;54.88
76605;BME280;65496;50.978;16.998;2022-12-16T00:48:19;99518.56;;;20.52;54.52
76605;BME280;65496;50.978;16.998;2022-12-16T00:50:49;99508.34;;;20.52;55.04
76605;BME280;65496;50.978;16.998;2022-12-16T00:53:16;99515.00;;;20.51;55.15
76605;BME280;65496;50.978;16.998;2022-12-16T00:55:42;99506.75;;;20.51;54.99
76605;BME280;65496;50.978;16.998;2022-12-16T00:58:09;99510.31;;;20.52;54.98
76605;BME280;65496;50.978;16.998;2022-12-16T01:00:35;99516.59;;;20.52;54.73
76605;BME280;65496;50.978;16.998;2022-12-16T01:03:01;99506.81;;;20.55;54.54
76605;BME280;65496;50.978;16.998;2022-12-16T01:05:27;99496.63;;;20.55;54.25
76605;BME280;65496;50.978;16.998;2022-12-16T01:07:53;99478.97;;;20.56;54.22
76605;BME280;65496;50.978;16.998;2022-12-16T01:10:22;99486.41;;;20.56;54.52
76605;BME280;65496;50.978;16.998;2022-12-16T01:12:49;99482.88;;;20.55;54.41
76605;BME280;65496;50.978;16.998;2022-12-16T01:15:15;99478.53;;;20.54;55.12
76605;BME280;65496;50.978;16.998;2022-12-16T01:17:43;99485.63;;;20.55;54.91
76605;BME280;65496;50.978;16.998;2022-12-16T01:20:09;99481.28;;;20.54;54.92
76605;BME280;65496;50.978;16.998;2022-12-16T01:22:36;99486.78;;;20.54;54.54
76605;BME280;65496;50.978;16.998;2022-12-16T01:25:03;99492.66;;;20.53;54.63
76605;BME280;65496;50.978;16.998;2022-12-16T01:27:29;99497.00;;;20.54;55.04
76605;BME280;65496;50.978;16.998;2022-12-16T01:29:55;99502.50;;;20.54;54.73
76605;BME280;65496;50.978;16.998;2022-12-16T01:32:21;99503.66;;;20.53;55.06
76605;BME280;65496;50.978;16.998;2022-12-16T01:34:52;99493.00;;;20.51;55.31
76605;BME280;65496;50.978;16.998;2022-12-16T01:37:18;99494.25;;;20.54;55.03
76605;BME280;65496;50.978;16.998;2022-12-16T01:39:45;99493.44;;;20.53;55.34
76605;BME280;65496;50.978;16.998;2022-12-16T01:42:17;99492.28;;;20.54;55.29
76605;BME280;65496;50.978;16.998;2022-12-16T01:44:45;99485.94;;;20.50;54.81
76605;BME280;65496;50.978;16.998;2022-12-16T01:47:15;99491.50;;;20.54;55.37
76605;BME280;65496;50.978;16.998;2022-12-16T01:49:46;99484.81;;;20.55;55.06
76605;BME280;65496;50.978;16.998;2022-12-16T01:52:19;99482.06;;;20.55;55.25
76605;BME280;65496;50.978;16.998;2022-12-16T01:54:54;99471.06;;;20.55;55.13
76605;BME280;65496;50.978;16.998;2022-12-16T01:57:26;99468.69;;;20.53;55.22
76605;BME280;65496;50.978;16.998;2022-12-16T01:59:54;99470.28;;;20.54;55.34
76605;BME280;65496;50.978;16.998;2022-12-16T02:02:21;99458.50;;;20.54;55.22
76605;BME280;65496;50.978;16.998;2022-12-16T02:04:48;99467.16;;;20.56;55.09
76605;BME280;65496;50.978;16.998;2022-12-16T02:07:33;99467.16;;;20.56;55.32
76605;BME280;65496;50.978;16.998;2022-12-16T02:09:59;99464.41;;;20.56;55.46
76605;BME280;65496;50.978;16.998;2022-12-16T02:17:48;99438.50;;;20.57;55.52
76605;BME280;65496;50.978;16.998;2022-12-16T02:23:22;99445.22;;;20.59;56.08
76605;BME280;65496;50.978;16.998;2022-12-16T02:31:18;99432.22;;;20.56;55.93
76605;BME280;65496;50.978;16.998;2022-12-16T02:39:59;99434.59;;;20.58;55.89
76605;BME280;65496;50.978;16.998;2022-12-16T02:42:35;99438.16;;;20.58;55.92
76605;BME280;65496;50.978;16.998;2022-12-16T02:45:06;99431.41;;;20.56;55.43
76605;BME280;65496;50.978;16.998;2022-12-16T02:47:36;99424.75;;;20.57;55.69
76605;BME280;65496;50.978;16.998;2022-12-16T02:50:02;99437.75;;;20.60;55.90
76605;BME280;65496;50.978;16.998;2022-12-16T02:52:30;99425.97;;;20.59;55.90
76605;BME280;65496;50.978;16.998;2022-12-16T02:55:03;99437.34;;;20.58;56.25
76605;BME280;65496;50.978;16.998;2022-12-16T02:57:44;99446.00;;;20.60;55.73
76605;BME280;65496;50.978;16.998;2022-12-16T03:00:20;99438.16;;;20.58;55.85
76605;BME280;65496;50.978;16.998;2022-12-16T03:02:48;99435.81;;;20.60;55.49
76605;BME280;65496;50.978;16.998;2022-12-16T03:07:55;99429.91;;;20.58;55.88
76605;BME280;65496;50.978;16.998;2022-12-16T03:10:27;99418.50;;;20.60;56.33
76605;BME280;65496;50.978;16.998;2022-12-16T03:12:55;99419.31;;;20.60;56.17
76605;BME280;65496;50.978;16.998;2022-12-16T03:15:26;99418.16;;;20.61;55.80
76605;BME280;65496;50.978;16.998;2022-12-16T03:17:54;99406.72;;;20.59;56.25
76605;BME280;65496;50.978;16.998;2022-12-16T03:20:41;99392.97;;;20.59;56.24
76605;BME280;65496;50.978;16.998;2022-12-16T03:23:11;99391.00;;;20.60;56.08
76605;BME280;65496;50.978;16.998;2022-12-16T03:25:41;99382.66;;;20.53;56.13
76605;BME280;65496;50.978;16.998;2022-12-16T03:28:36;99385.91;;;20.58;56.19
76605;BME280;65496;50.978;16.998;2022-12-16T03:31:12;99401.66;;;20.61;56.18
76605;BME280;65496;50.978;16.998;2022-12-16T03:34:04;99393.34;;;20.58;56.05
76605;BME280;65496;50.978;16.998;2022-12-16T03:36:34;99392.56;;;20.57;56.10
76605;BME280;65496;50.978;16.998;2022-12-16T03:39:02;99391.75;;;20.57;56.17
76605;BME280;65496;50.978;16.998;2022-12-16T03:41:30;99381.50;;;20.54;56.49
76605;BME280;65496;50.978;16.998;2022-12-16T03:43:57;99390.97;;;20.56;56.44
76605;BME280;65496;50.978;16.998;2022-12-16T03:46:23;99394.50;;;20.57;55.92
76605;BME280;65496;50.978;16.998;2022-12-16T03:48:50;99396.47;;;20.56;56.18
76605;BME280;65496;50.978;16.998;2022-12-16T03:51:18;99394.06;;;20.55;56.32
76605;BME280;65496;50.978;16.998;2022-12-16T03:53:44;99393.69;;;20.56;56.17
76605;BME280;65496;50.978;16.998;2022-12-16T03:56:11;99395.66;;;20.56;56.20
76605;BME280;65496;50.978;16.998;2022-12-16T03:58:40;99395.66;;;20.56;56.22
76605;BME280;65496;50.978;16.998;2022-12-16T04:01:10;99392.13;;;20.55;56.48
76605;BME280;65496;50.978;16.998;2022-12-16T04:03:36;99392.91;;;20.56;56.18
76605;BME280;65496;50.978;16.998;2022-12-16T04:06:03;99409.41;;;20.56;56.39
76605;BME280;65496;50.978;16.998;2022-12-16T04:08:29;99418.09;;;20.58;56.39
76605;BME280;65496;50.978;16.998;2022-12-16T04:10:55;99407.47;;;20.56;55.97
76605;BME280;65496;50.978;16.998;2022-12-16T04:13:53;99420.06;;;20.57;56.47
76605;BME280;65496;50.978;16.998;2022-12-16T04:16:38;99428.31;;;20.57;56.23
76605;BME280;65496;50.978;16.998;2022-12-16T04:19:25;99434.22;;;20.59;56.35
76605;BME280;65496;50.978;16.998;2022-12-16T04:22:12;99439.34;;;20.61;56.94
76605;BME280;65496;50.978;16.998;2022-12-16T04:25:03;99442.91;;;20.61;56.41
76605;BME280;65496;50.978;16.998;2022-12-16T04:27:30;99436.59;;;20.61;56.61
76605;BME280;65496;50.978;16.998;2022-12-16T04:29:56;99452.72;;;20.62;56.81
76605;BME280;65496;50.978;16.998;2022-12-16T04:32:41;99423.09;;;20.52;56.54
76605;BME280;65496;50.978;16.998;2022-12-16T04:35:26;99432.31;;;20.63;56.63
76605;BME280;65496;50.978;16.998;2022-12-16T04:38:10;99433.13;;;20.64;56.43
76605;BME280;65496;50.978;16.998;2022-12-16T04:40:55;99428.75;;;20.63;56.45
76605;BME280;65496;50.978;16.998;2022-12-16T04:43:39;99440.56;;;20.63;56.60
76605;BME280;65496;50.978;16.998;2022-12-16T04:46:24;99432.69;;;20.62;56.69
76605;BME280;65496;50.978;16.998;2022-12-16T04:49:08;99430.72;;;20.62;56.61
76605;BME280;65496;50.978;16.998;2022-12-16T04:51:53;99428.75;;;20.63;56.94
76605;BME280;65496;50.978;16.998;2022-12-16T04:54:38;99434.28;;;20.63;56.58
76605;BME280;65496;50.978;16.998;2022-12-16T04:57:22;99423.53;;;20.54;56.53
76605;BME280;65496;50.978;16.998;2022-12-16T05:00:07;99424.31;;;20.55;56.74
76605;BME280;65496;50.978;16.998;2022-12-16T05:02:52;99445.28;;;20.63;56.38
76605;BME280;65496;50.978;16.998;2022-12-16T05:05:37;99432.66;;;20.58;57.03
76605;BME280;65496;50.978;16.998;2022-12-16T05:08:21;99442.16;;;20.64;56.63
76605;BME280;65496;50.978;16.998;2022-12-16T05:11:06;99429.16;;;20.61;56.73
76605;BME280;65496;50.978;16.998;2022-12-16T05:13:50;99446.88;;;20.64;56.78
76605;BME280;65496;50.978;16.998;2022-12-16T05:16:35;99438.63;;;20.64;56.61
76605;BME280;65496;50.978;16.998;2022-12-16T05:19:19;99429.56;;;20.63;56.45
76605;BME280;65496;50.978;16.998;2022-12-16T05:22:04;99430.38;;;20.64;56.61
76605;BME280;65496;50.978;16.998;2022-12-16T05:24:49;99423.28;;;20.63;56.53
76605;BME280;65496;50.978;16.998;2022-12-16T05:27:33;99429.56;;;20.63;56.38
76605;BME280;65496;50.978;16.998;2022-12-16T05:30:18;99427.63;;;20.64;56.63
76605;BME280;65496;50.978;16.998;2022-12-16T05:33:02;99420.50;;;20.63;57.00
76605;BME280;65496;50.978;16.998;2022-12-16T05:35:47;99405.97;;;20.62;57.15
76605;BME280;65496;50.978;16.998;2022-12-16T05:38:31;99402.06;;;20.63;56.58
76605;BME280;65496;50.978;16.998;2022-12-16T05:41:16;99399.31;;;20.63;56.54
76605;BME280;65496;50.978;16.998;2022-12-16T05:44:01;99388.69;;;20.62;57.12
76605;BME280;65496;50.978;16.998;2022-12-16T05:46:46;99384.75;;;20.63;57.08
76605;BME280;65496;50.978;16.998;2022-12-16T05:49:30;99384.75;;;20.63;56.86
76605;BME280;65496;50.978;16.998;2022-12-16T05:52:15;99383.56;;;20.60;57.03
76605;BME280;65496;50.978;16.998;2022-12-16T05:55:00;99381.22;;;20.62;56.84
76605;BME280;65496;50.978;16.998;2022-12-16T05:57:48;99383.56;;;20.60;56.69
76605;BME280;65496;50.978;16.998;2022-12-16T06:00:33;99383.19;;;20.62;56.89
76605;BME280;65496;50.978;16.998;2022-12-16T06:03:18;99387.09;;;20.61;57.13
76605;BME280;65496;50.978;16.998;2022-12-16T06:06:03;99375.25;;;20.57;57.22
76605;BME280;65496;50.978;16.998;2022-12-16T06:08:47;99386.31;;;20.60;57.21
76605;BME280;65496;50.978;16.998;2022-12-16T06:11:32;99389.84;;;20.61;57.13
76605;BME280;65496;50.978;16.998;2022-12-16T06:14:16;99391.00;;;20.60;57.14
76605;BME280;65496;50.978;16.998;2022-12-16T06:17:01;99389.06;;;20.60;57.24
76605;BME280;65496;50.978;16.998;2022-12-16T06:19:45;99387.91;;;20.61;57.06
76605;BME280;65496;50.978;16.998;2022-12-16T06:22:30;99379.97;;;20.56;57.18
76605;BME280;65496;50.978;16.998;2022-12-16T06:25:14;99401.25;;;20.63;57.20
76605;BME280;65496;50.978;16.998;2022-12-16T06:27:59;99406.75;;;20.63;57.44
76605;BME280;65496;50.978;16.998;2022-12-16T06:30:44;99406.41;;;20.64;57.35
76605;BME280;65496;50.978;16.998;2022-12-16T06:33:28;99408.34;;;20.64;57.37
76605;BME280;65496;50.978;16.998;2022-12-16T06:36:13;99406.75;;;20.63;57.08
76605;BME280;65496;50.978;16.998;2022-12-16T06:38:58;99398.91;;;20.61;57.42
76605;BME280;65496;50.978;16.998;2022-12-16T06:41:56;99407.94;;;20.62;56.20
76605;BME280;65496;50.978;16.998;2022-12-16T06:44:41;99403.66;;;20.64;54.40
76605;BME280;65496;50.978;16.998;2022-12-16T06:47:25;99398.56;;;20.66;52.76
76605;BME280;65496;50.978;16.998;2022-12-16T06:50:10;99406.06;;;20.66;52.05
76605;BME280;65496;50.978;16.998;2022-12-16T06:52:55;99410.38;;;20.67;51.09
76605;BME280;65496;50.978;16.998;2022-12-16T06:55:39;99413.91;;;20.67;50.39
76605;BME280;65496;50.978;16.998;2022-12-16T06:58:24;99414.72;;;20.68;49.84
76605;BME280;65496;50.978;16.998;2022-12-16T07:01:08;99417.06;;;20.66;49.57
76605;BME280;65496;50.978;16.998;2022-12-16T07:03:53;99411.97;;;20.68;48.80
76605;BME280;65496;50.978;16.998;2022-12-16T07:06:37;99419.06;;;20.69;48.84
76605;BME280;65496;50.978;16.998;2022-12-16T07:09:22;99422.97;;;20.68;48.44
76605;BME280;65496;50.978;16.998;2022-12-16T07:12:06;99411.16;;;20.67;48.17
76605;BME280;65496;50.978;16.998;2022-12-16T07:14:52;99427.31;;;20.69;48.08
76605;BME280;65496;50.978;16.998;2022-12-16T07:17:39;99413.91;;;20.67;47.72
76605;BME280;65496;50.978;16.998;2022-12-16T07:20:24;99420.22;;;20.68;47.59
76605;BME280;65496;50.978;16.998;2022-12-16T07:23:09;99419.84;;;20.69;47.67
76605;BME280;65496;50.978;16.998;2022-12-16T07:25:53;99419.84;;;20.69;47.49
76605;BME280;65496;50.978;16.998;2022-12-16T07:28:39;99423.41;;;20.70;47.34
76605;BME280;65496;50.978;16.998;2022-12-16T07:31:23;99418.66;;;20.70;47.26
76605;BME280;65496;50.978;16.998;2022-12-16T07:34:08;99420.25;;;20.71;47.33
76605;BME280;65496;50.978;16.998;2022-12-16T07:36:53;99421.06;;;20.72;47.59
76605;BME280;65496;50.978;16.998;2022-12-16T07:39:38;99423.00;;;20.71;47.18
76605;BME280;65496;50.978;16.998;2022-12-16T07:42:23;99437.56;;;20.72;47.28
76605;BME280;65496;50.978;16.998;2022-12-16T07:45:08;99432.44;;;20.70;47.13
76605;BME280;65496;50.978;16.998;2022-12-16T07:47:53;99440.31;;;20.72;47.22
76605;BME280;65496;50.978;16.998;2022-12-16T07:50:39;99441.91;;;20.73;47.21
76605;BME280;65496;50.978;16.998;2022-12-16T07:53:25;99454.06;;;20.72;46.81
76605;BME280;65496;50.978;16.998;2022-12-16T07:56:11;99461.53;;;20.71;46.78
76605;BME280;65496;50.978;16.998;2022-12-16T07:58:55;99462.31;;;20.72;46.78
76605;BME280;65496;50.978;16.998;2022-12-16T08:01:40;99446.19;;;20.70;46.72
76605;BME280;65496;50.978;16.998;2022-12-16T08:04:24;99442.28;;;20.71;46.84
76605;BME280;65496;50.978;16.998;2022-12-16T08:07:09;99442.66;;;20.70;46.75
76605;BME280;65496;50.978;16.998;2022-12-16T08:09:54;99439.16;;;20.73;46.71
76605;BME280;65496;50.978;16.998;2022-12-16T08:12:38;99429.31;;;20.72;46.79
76605;BME280;65496;50.978;16.998;2022-12-16T08:15:23;99432.88;;;20.72;46.33
76605;BME280;65496;50.978;16.998;2022-12-16T08:18:07;99435.63;;;20.72;46.57
76605;BME280;65496;50.978;16.998;2022-12-16T08:20:52;99438.38;;;20.72;46.35
76605;BME280;65496;50.978;16.998;2022-12-16T08:23:37;99446.22;;;20.74;46.22
76605;BME280;65496;50.978;16.998;2022-12-16T08:26:22;99453.72;;;20.73;46.51
76605;BME280;65496;50.978;16.998;2022-12-16T08:29:20;99462.72;;;20.74;46.34
76605;BME280;65496;50.978;16.998;2022-12-16T08:32:04;99459.97;;;20.74;46.24
76605;BME280;65496;50.978;16.998;2022-12-16T08:34:49;99466.66;;;20.73;46.28
76605;BME280;65496;50.978;16.998;2022-12-16T08:37:34;99477.28;;;20.74;46.18
76605;BME280;65496;50.978;16.998;2022-12-16T08:40:19;99466.66;;;20.73;46.51
76605;BME280;65496;50.978;16.998;2022-12-16T08:43:03;99472.53;;;20.71;46.84
76605;BME280;65496;50.978;16.998;2022-12-16T08:45:52;99471.31;;;20.69;46.89
76605;BME280;65496;50.978;16.998;2022-12-16T08:48:37;99470.53;;;20.68;47.33
76605;BME280;65496;50.978;16.998;2022-12-16T08:51:25;99476.38;;;20.67;47.55
76605;BME280;65496;50.978;16.998;2022-12-16T08:54:10;99479.13;;;20.67;47.81
76605;BME280;65496;50.978;16.998;2022-12-16T08:56:56;99489.72;;;20.65;48.19
76605;BME280;65496;50.978;16.998;2022-12-16T08:59:42;99495.22;;;20.65;48.30
76605;BME280;65496;50.978;16.998;2022-12-16T09:02:27;99490.53;;;20.65;48.21
76605;BME280;65496;50.978;16.998;2022-12-16T09:05:12;99489.72;;;20.65;48.60
76605;BME280;65496;50.978;16.998;2022-12-16T09:08:01;99497.19;;;20.64;48.60
76605;BME280;65496;50.978;16.998;2022-12-16T09:10:46;99508.19;;;20.64;48.33
76605;BME280;65496;50.978;16.998;2022-12-16T09:13:31;99517.22;;;20.65;48.63
76605;BME280;65496;50.978;16.998;2022-12-16T09:16:18;99527.84;;;20.66;48.60
76605;BME280;65496;50.978;16.998;2022-12-16T09:19:05;99520.03;;;20.68;48.77
76605;BME280;65496;50.978;16.998;2022-12-16T09:21:51;99515.34;;;20.69;48.86
76605;BME280;65496;50.978;16.998;2022-12-16T09:24:37;99521.25;;;20.71;48.92
76605;BME280;65496;50.978;16.998;2022-12-16T09:27:23;99520.09;;;20.72;48.96
76605;BME280;65496;50.978;16.998;2022-12-16T09:30:10;99516.13;;;20.69;49.49
76605;BME280;65496;50.978;16.998;2022-12-16T09:32:56;99530.78;;;20.77;49.37
76605;BME280;65496;50.978;16.998;2022-12-16T09:35:41;99531.66;;;20.81;49.09
76605;BME280;65496;50.978;16.998;2022-12-16T09:38:26;99520.66;;;20.81;48.13
76605;BME280;65496;50.978;16.998;2022-12-16T09:41:43;99524.66;;;20.87;47.42
76605;BME280;65496;50.978;16.998;2022-12-16T09:47:46;99518.47;;;20.93;46.57
76605;BME280;65496;50.978;16.998;2022-12-16T09:50:37;99511.81;;;20.95;46.47
76605;BME280;65496;50.978;16.998;2022-12-16T09:53:25;99520.13;;;20.98;46.47
76605;BME280;65496;50.978;16.998;2022-12-16T09:56:16;99526.44;;;20.99;45.73
76605;BME280;65496;50.978;16.998;2022-12-16T09:59:10;99521.28;;;20.97;45.51
76605;BME280;65496;50.978;16.998;2022-12-16T10:01:55;99534.69;;;20.99;45.50
76605;BME280;65496;50.978;16.998;2022-12-16T10:04:51;99537.06;;;21.00;46.10
76605;BME280;65496;50.978;16.998;2022-12-16T10:07:41;99522.13;;;21.01;45.99
76605;BME280;65496;50.978;16.998;2022-12-16T10:13:47;99518.22;;;21.02;45.96
76605;BME280;65496;50.978;16.998;2022-12-16T10:22:55;99545.75;;;21.02;45.37
76605;BME280;65496;50.978;16.998;2022-12-16T10:25:52;99541.03;;;21.03;44.93
76605;BME280;65496;50.978;16.998;2022-12-16T10:28:49;99537.50;;;21.02;44.63
76605;BME280;65496;50.978;16.998;2022-12-16T10:31:39;99538.66;;;21.01;44.52
76605;BME280;65496;50.978;16.998;2022-12-16T10:34:29;99549.66;;;21.01;44.32
76605;BME280;65496;50.978;16.998;2022-12-16T10:37:37;99537.88;;;21.01;44.00
76605;BME280;65496;50.978;16.998;2022-12-16T10:40:30;99548.88;;;21.01;43.97
76605;BME280;65496;50.978;16.998;2022-12-16T10:43:46;99548.09;;;21.00;43.97
76605;BME280;65496;50.978;16.998;2022-12-16T10:46:36;99554.75;;;20.99;43.58
76605;BME280;65496;50.978;16.998;2022-12-16T10:49:24;99552.00;;;20.99;43.34
76605;BME280;65496;50.978;16.998;2022-12-16T10:52:13;99561.06;;;21.00;43.14
76605;BME280;65496;50.978;16.998;2022-12-16T10:55:27;99548.44;;;20.99;42.87
76605;BME280;65496;50.978;16.998;2022-12-16T10:59:00;99552.00;;;20.99;42.38
76605;BME280;65496;50.978;16.998;2022-12-16T11:02:02;99547.66;;;20.98;42.49
76605;BME280;65496;50.978;16.998;2022-12-16T11:04:51;99557.84;;;20.98;42.64
76605;BME280;65496;50.978;16.998;2022-12-16T11:10:42;99551.56;;;20.97;42.48
76605;BME280;65496;50.978;16.998;2022-12-16T11:13:32;99556.28;;;20.97;42.42
76605;BME280;65496;50.978;16.998;2022-12-16T11:16:27;99552.75;;;20.96;42.46
76605;BME280;65496;50.978;16.998;2022-12-16T11:19:20;99551.13;;;20.95;42.06
76605;BME280;65496;50.978;16.998;2022-12-16T11:22:25;99549.97;;;20.96;42.08
76605;BME280;65496;50.978;16.998;2022-12-16T11:25:19;99542.53;;;20.97;42.11
76605;BME280;65496;50.978;16.998;2022-12-16T11:28:12;99516.84;;;20.89;41.78
76605;BME280;65496;50.978;16.998;2022-12-16T11:31:02;99530.34;;;20.98;42.03
76605;BME280;65496;50.978;16.998;2022-12-16T11:33:49;99518.53;;;20.97;41.81
76605;BME280;65496;50.978;16.998;2022-12-16T11:36:37;99514.63;;;20.98;41.88
76605;BME280;65496;50.978;16.998;2022-12-16T11:39:26;99506.38;;;20.98;41.66
76605;BME280;65496;50.978;16.998;2022-12-16T11:42:20;99500.50;;;21.00;41.74
76605;BME280;65496;50.978;16.998;2022-12-16T11:45:12;99493.84;;;21.01;41.67
76605;BME280;65496;50.978;16.998;2022-12-16T11:48:04;99487.53;;;21.00;41.79
76605;BME280;65496;50.978;16.998;2022-12-16T11:50:54;99492.25;;;21.00;41.82
76605;BME280;65496;50.978;16.998;2022-12-16T11:56:59;99504.84;;;21.01;41.59
76605;BME280;65496;50.978;16.998;2022-12-16T12:00:05;99522.94;;;21.02;41.63
76605;BME280;65496;50.978;16.998;2022-12-16T12:03:15;99516.63;;;21.01;41.67
76605;BME280;65496;50.978;16.998;2022-12-16T12:06:10;99521.72;;;20.99;41.70
76605;BME280;65496;50.978;16.998;2022-12-16T12:09:17;99529.22;;;21.02;41.61
76605;BME280;65496;50.978;16.998;2022-12-16T12:12:29;99545.75;;;21.02;41.58
76605;BME280;65496;50.978;16.998;2022-12-16T12:15:24;99549.28;;;21.03;41.59
76605;BME280;65496;50.978;16.998;2022-12-16T12:21:48;99557.91;;;21.01;41.41
76605;BME280;65496;50.978;16.998;2022-12-16T12:28:06;99559.09;;;21.00;41.26
76605;BME280;65496;50.978;16.998;2022-12-16T12:31:15;99555.91;;;20.98;40.82
76605;BME280;65496;50.978;16.998;2022-12-16T12:37:16;99558.94;;;20.93;40.15
76605;BME280;65496;50.978;16.998;2022-12-16T12:46:30;99554.56;;;20.88;40.69
76605;BME280;65496;50.978;16.998;2022-12-16T12:55:30;99554.19;;;20.90;40.92
76605;BME280;65496;50.978;16.998;2022-12-16T12:58:18;99562.44;;;20.90;41.03
76605;BME280;65496;50.978;16.998;2022-12-16T13:01:04;99562.84;;;20.88;41.00
76605;BME280;65496;50.978;16.998;2022-12-16T13:04:00;99574.69;;;20.92;41.27
76605;BME280;65496;50.978;16.998;2022-12-16T13:06:48;99579.41;;;20.92;41.25
76605;BME280;65496;50.978;16.998;2022-12-16T13:09:38;99585.66;;;20.89;41.20
76605;BME280;65496;50.978;16.998;2022-12-16T13:12:30;99592.66;;;20.86;41.79
76605;BME280;65496;50.978;16.998;2022-12-16T13:18:30;99604.75;;;20.82;41.55
76605;BME280;65496;50.978;16.998;2022-12-16T13:24:45;99609.03;;;20.79;41.63
76605;BME280;65496;50.978;16.998;2022-12-16T13:27:45;99604.69;;;20.78;41.60
76605;BME280;65496;50.978;16.998;2022-12-16T13:30:32;99608.97;;;20.76;41.71
76605;BME280;65496;50.978;16.998;2022-12-16T13:36:06;99623.53;;;20.76;41.77
76605;BME280;65496;50.978;16.998;2022-12-16T13:38:55;99625.03;;;20.74;41.69
76605;BME280;65496;50.978;16.998;2022-12-16T13:50:39;99631.28;;;20.71;41.71
76605;BME280;65496;50.978;16.998;2022-12-16T13:53:27;99641.88;;;20.69;42.12
76605;BME280;65496;50.978;16.998;2022-12-16T13:56:16;99644.56;;;20.65;42.51
76605;BME280;65496;50.978;16.998;2022-12-16T13:59:12;99634.63;;;20.61;43.17
76605;BME280;65496;50.978;16.998;2022-12-16T14:02:11;99640.88;;;20.58;43.12
76605;BME280;65496;50.978;16.998;2022-12-16T14:04:58;99645.91;;;20.56;43.37
76605;BME280;65496;50.978;16.998;2022-12-16T14:07:43;99646.31;;;20.54;43.59
76605;BME280;65496;50.978;16.998;2022-12-16T14:10:40;99659.59;;;20.52;43.83
76605;BME280;65496;50.978;16.998;2022-12-16T14:13:30;99665.09;;;20.52;43.56
76605;BME280;65496;50.978;16.998;2022-12-16T14:16:32;99673.00;;;20.54;43.83
76605;BME280;65496;50.978;16.998;2022-12-16T14:19:57;99687.56;;;20.54;43.32
76605;BME280;65496;50.978;16.998;2022-12-16T14:23:00;99686.38;;;20.55;43.29
76605;BME280;65496;50.978;16.998;2022-12-16T14:25:46;99696.56;;;20.55;43.13
76605;BME280;65496;50.978;16.998;2022-12-16T14:28:39;99696.22;;;20.56;43.07
76605;BME280;65496;50.978;16.998;2022-12-16T14:31:38;99701.38;;;20.58;42.80
76605;BME280;65496;50.978;16.998;2022-12-16T14:34:33;99705.28;;;20.57;43.11
76605;BME280;65496;50.978;16.998;2022-12-16T14:37:34;99717.09;;;20.57;43.01
76605;BME280;65496;50.978;16.998;2022-12-16T14:40:20;99716.28;;;20.57;42.63
76605;BME280;65496;50.978;16.998;2022-12-16T14:43:17;99718.69;;;20.58;42.71
76605;BME280;65496;50.978;16.998;2022-12-16T14:46:03;99714.75;;;20.59;42.51
76605;BME280;65496;50.978;16.998;2022-12-16T14:48:49;99726.13;;;20.58;42.54
76605;BME280;65496;50.978;16.998;2022-12-16T14:51:36;99728.50;;;20.59;42.53
76605;BME280;65496;50.978;16.998;2022-12-16T14:54:30;99732.78;;;20.57;42.61
76605;BME280;65496;50.978;16.998;2022-12-16T14:57:20;99718.44;;;20.48;42.54
76605;BME280;65496;50.978;16.998;2022-12-16T15:00:12;99737.13;;;20.58;42.41
76605;BME280;65496;50.978;16.998;2022-12-16T15:03:31;99748.13;;;20.58;42.46
76605;BME280;65496;50.978;16.998;2022-12-16T15:06:28;99748.13;;;20.58;42.50
76605;BME280;65496;50.978;16.998;2022-12-16T15:09:34;99758.34;;;20.57;42.31
76605;BME280;65496;50.978;16.998;2022-12-16T15:12:23;99767.38;;;20.58;42.36
76605;BME280;65496;50.978;16.998;2022-12-16T15:15:17;99774.84;;;20.57;42.28
76605;BME280;65496;50.978;16.998;2022-12-16T15:18:03;99770.94;;;20.58;42.29
76605;BME280;65496;50.978;16.998;2022-12-16T15:20:52;99779.88;;;20.55;42.19
76605;BME280;65496;50.978;16.998;2022-12-16T15:23:41;99774.03;;;20.57;42.22
76605;BME280;65496;50.978;16.998;2022-12-16T15:26:32;99776.78;;;20.57;42.15
76605;BME280;65496;50.978;16.998;2022-12-16T15:29:37;99779.88;;;20.55;41.96
76605;BME280;65496;50.978;16.998;2022-12-16T15:40:58;99790.88;;;20.55;42.17
76605;BME280;65496;50.978;16.998;2022-12-16T15:43:44;99790.09;;;20.55;41.98
76605;BME280;65496;50.978;16.998;2022-12-16T15:46:31;99795.59;;;20.55;41.79